sensor_id;sensor_type;location;lat;lon;timestamp;temperature;humidity
46378;DHT22;32083;47.360;9.650;2022-08-19T04:00:31;18.80;95.10
46378;DHT22;32083;47.360;9.650;2022-08-19T04:03:03;18.80;95.00
46378;DHT22;32083;47.360;9.650;2022-08-19T04:05:29;18.80;95.20
46378;DHT22;32083;47.360;9.650;2022-08-19T04:07:55;18.80;94.90
46378;DHT22;32083;47.360;9.650;2022-08-19T04:10:24;18.70;95.10
46378;DHT22;32083;47.360;9.650;2022-08-19T04:12:51;18.80;95.10
46378;DHT22;32083;47.360;9.650;2022-08-19T04:15:17;18.70;95.30
46378;DHT22;32083;47.360;9.650;2022-08-19T04:17:43;18.70;95.30
46378;DHT22;32083;47.360;9.650;2022-08-19T04:20:09;18.70;95.60
46378;DHT22;32083;47.360;9.650;2022-08-19T04:22:35;18.70;95.40
46378;DHT22;32083;47.360;9.650;2022-08-19T04:25:02;18.70;95.50
46378;DHT22;32083;47.360;9.650;2022-08-19T04:27:28;18.80;95.70
46378;DHT22;32083;47.360;9.650;2022-08-19T04:29:54;18.80;95.50
46378;DHT22;32083;47.360;9.650;2022-08-19T04:32:20;18.80;95.70
46378;DHT22;32083;47.360;9.650;2022-08-19T04:34:47;18.80;95.50
46378;DHT22;32083;47.360;9.650;2022-08-19T04:37:13;18.80;95.80
46378;DHT22;32083;47.360;9.650;2022-08-19T04:39:39;18.70;95.80
46378;DHT22;32083;47.360;9.650;2022-08-19T04:42:24;18.70;95.40
46378;DHT22;32083;47.360;9.650;2022-08-19T04:45:12;18.80;95.70
46378;DHT22;32083;47.360;9.650;2022-08-19T04:47:40;18.80;95.60
46378;DHT22;32083;47.360;9.650;2022-08-19T04:50:07;18.80;95.70
46378;DHT22;32083;47.360;9.650;2022-08-19T04:52:37;18.80;95.40
46378;DHT22;32083;47.360;9.650;2022-08-19T04:55:03;18.80;95.40
46378;DHT22;32083;47.360;9.650;2022-08-19T04:57:31;18.80;95.60
46378;DHT22;32083;47.360;9.650;2022-08-19T04:59:57;18.80;95.50
46378;DHT22;32083;47.360;9.650;2022-08-19T05:02:25;18.80;95.50
46378;DHT22;32083;47.360;9.650;2022-08-19T05:04:57;18.80;95.70
46378;DHT22;32083;47.360;9.650;2022-08-19T05:07:25;18.80;95.60
46378;DHT22;32083;47.360;9.650;2022-08-19T05:09:51;18.80;95.40
46378;DHT22;32083;47.360;9.650;2022-08-19T05:12:17;18.80;95.70
46378;DHT22;32083;47.360;9.650;2022-08-19T05:14:44;18.80;95.60
46378;DHT22;32083;47.360;9.650;2022-08-19T05:17:11;18.80;95.50
46378;DHT22;32083;47.360;9.650;2022-08-19T05:19:37;18.80;95.70
46378;DHT22;32083;47.360;9.650;2022-08-19T05:22:22;18.80;95.40
46378;DHT22;32083;47.360;9.650;2022-08-19T05:25:06;18.80;95.60
46378;DHT22;32083;47.360;9.650;2022-08-19T05:27:33;18.80;95.70
46378;DHT22;32083;47.360;9.650;2022-08-19T05:29:59;18.80;95.70
46378;DHT22;32083;47.360;9.650;2022-08-19T05:32:26;18.80;95.70
46378;DHT22;32083;47.360;9.650;2022-08-19T05:34:52;18.80;95.60
46378;DHT22;32083;47.360;9.650;2022-08-19T05:37:18;18.80;95.40
46378;DHT22;32083;47.360;9.650;2022-08-19T05:39:44;18.80;95.20
46378;DHT22;32083;47.360;9.650;2022-08-19T05:42:11;18.90;95.20
46378;DHT22;32083;47.360;9.650;2022-08-19T05:44:41;18.90;95.40
46378;DHT22;32083;47.360;9.650;2022-08-19T05:47:12;18.90;95.40
46378;DHT22;32083;47.360;9.650;2022-08-19T05:49:39;18.80;95.30
46378;DHT22;32083;47.360;9.650;2022-08-19T05:52:07;18.90;95.40
46378;DHT22;32083;47.360;9.650;2022-08-19T05:54:34;18.80;95.50
46378;DHT22;32083;47.360;9.650;2022-08-19T05:57:03;18.80;95.60
46378;DHT22;32083;47.360;9.650;2022-08-19T05:59:29;18.80;95.50
46378;DHT22;32083;47.360;9.650;2022-08-19T06:01:55;18.80;95.50
46378;DHT22;32083;47.360;9.650;2022-08-19T06:04:23;18.80;95.60
46378;DHT22;32083;47.360;9.650;2022-08-19T06:06:50;18.80;95.50
46378;DHT22;32083;47.360;9.650;2022-08-19T06:09:18;18.80;95.40
46378;DHT22;32083;47.360;9.650;2022-08-19T06:11:50;18.80;95.60
46378;DHT22;32083;47.360;9.650;2022-08-19T06:14:22;18.90;95.40
46378;DHT22;32083;47.360;9.650;2022-08-19T06:16:49;18.90;96.00
46378;DHT22;32083;47.360;9.650;2022-08-19T06:19:20;18.80;95.80
46378;DHT22;32083;47.360;9.650;2022-08-19T06:21:48;18.80;95.90
46378;DHT22;32083;47.360;9.650;2022-08-19T06:24:20;18.80;95.70
46378;DHT22;32083;47.360;9.650;2022-08-19T06:26:49;18.80;95.60
46378;DHT22;32083;47.360;9.650;2022-08-19T06:29:17;18.80;95.50
46378;DHT22;32083;47.360;9.650;2022-08-19T06:31:46;18.90;95.40
46378;DHT22;32083;47.360;9.650;2022-08-19T06:34:15;18.80;95.90
46378;DHT22;32083;47.360;9.650;2022-08-19T06:36:49;18.80;96.10
46378;DHT22;32083;47.360;9.650;2022-08-19T06:39:22;18.70;96.00
46378;DHT22;32083;47.360;9.650;2022-08-19T06:41:50;18.70;96.10
46378;DHT22;32083;47.360;9.650;2022-08-19T06:44:18;18.70;96.20
46378;DHT22;32083;47.360;9.650;2022-08-19T06:46:45;18.60;96.00
46378;DHT22;32083;47.360;9.650;2022-08-19T06:49:11;18.60;96.10
46378;DHT22;32083;47.360;9.650;2022-08-19T06:51:43;18.60;96.20
46378;DHT22;32083;47.360;9.650;2022-08-19T06:54:10;18.50;96.30
46378;DHT22;32083;47.360;9.650;2022-08-19T06:56:37;18.40;96.40
46378;DHT22;32083;47.360;9.650;2022-08-19T06:59:13;18.40;96.50
46378;DHT22;32083;47.360;9.650;2022-08-19T07:01:44;18.40;96.30
46378;DHT22;32083;47.360;9.650;2022-08-19T07:04:14;18.30;96.20
46378;DHT22;32083;47.360;9.650;2022-08-19T07:06:41;18.30;96.30
46378;DHT22;32083;47.360;9.650;2022-08-19T07:09:09;18.30;96.20
46378;DHT22;32083;47.360;9.650;2022-08-19T07:11:35;18.30;96.20
46378;DHT22;32083;47.360;9.650;2022-08-19T07:14:02;18.20;96.10
46378;DHT22;32083;47.360;9.650;2022-08-19T07:16:29;18.20;96.10
46378;DHT22;32083;47.360;9.650;2022-08-19T07:18:55;18.30;95.90
46378;DHT22;32083;47.360;9.650;2022-08-19T07:21:27;18.20;95.80
46378;DHT22;32083;47.360;9.650;2022-08-19T07:23:55;18.20;95.80
46378;DHT22;32083;47.360;9.650;2022-08-19T07:26:27;18.10;95.80
46378;DHT22;32083;47.360;9.650;2022-08-19T07:28:54;18.20;95.90
46378;DHT22;32083;47.360;9.650;2022-08-19T07:31:23;18.20;95.90
46378;DHT22;32083;47.360;9.650;2022-08-19T07:33:51;18.20;96.00
46378;DHT22;32083;47.360;9.650;2022-08-19T07:36:20;18.20;96.00
46378;DHT22;32083;47.360;9.650;2022-08-19T07:38:48;18.20;95.80
46378;DHT22;32083;47.360;9.650;2022-08-19T07:41:22;18.20;95.90
46378;DHT22;32083;47.360;9.650;2022-08-19T07:43:50;18.10;96.00
46378;DHT22;32083;47.360;9.650;2022-08-19T07:46:18;18.10;96.00
46378;DHT22;32083;47.360;9.650;2022-08-19T07:48:47;18.10;96.10
46378;DHT22;32083;47.360;9.650;2022-08-19T07:51:16;18.10;96.30
46378;DHT22;32083;47.360;9.650;2022-08-19T07:53:42;18.10;96.40
46378;DHT22;32083;47.360;9.650;2022-08-19T07:56:11;18.10;96.20
46378;DHT22;32083;47.360;9.650;2022-08-19T07:58:40;18.00;96.50
46378;DHT22;32083;47.360;9.650;2022-08-19T08:01:09;18.00;96.10
46378;DHT22;32083;47.360;9.650;2022-08-19T08:03:36;18.00;96.00
46378;DHT22;32083;47.360;9.650;2022-08-19T08:06:21;18.00;96.20
46378;DHT22;32083;47.360;9.650;2022-08-19T08:09:06;18.00;96.00
46378;DHT22;32083;47.360;9.650;2022-08-19T08:11:51;18.10;96.10
46378;DHT22;32083;47.360;9.650;2022-08-19T08:14:23;18.10;95.90
46378;DHT22;32083;47.360;9.650;2022-08-19T08:16:50;18.20;95.90
46378;DHT22;32083;47.360;9.650;2022-08-19T08:19:19;18.10;96.00
46378;DHT22;32083;47.360;9.650;2022-08-19T08:21:45;18.10;96.10
46378;DHT22;32083;47.360;9.650;2022-08-19T08:24:11;17.90;96.20
46378;DHT22;32083;47.360;9.650;2022-08-19T08:26:38;17.90;96.30
46378;DHT22;32083;47.360;9.650;2022-08-19T08:29:05;18.00;96.20
46378;DHT22;32083;47.360;9.650;2022-08-19T08:31:33;18.00;96.20
46378;DHT22;32083;47.360;9.650;2022-08-19T08:34:00;18.10;96.30
46378;DHT22;32083;47.360;9.650;2022-08-19T08:36:25;18.10;96.20
46378;DHT22;32083;47.360;9.650;2022-08-19T08:38:53;18.10;96.10
46378;DHT22;32083;47.360;9.650;2022-08-19T08:41:36;18.00;96.10
46378;DHT22;32083;47.360;9.650;2022-08-19T08:44:04;18.10;96.20
46378;DHT22;32083;47.360;9.650;2022-08-19T08:46:47;18.00;96.30
46378;DHT22;32083;47.360;9.650;2022-08-19T08:49:40;18.00;96.80
46378;DHT22;32083;47.360;9.650;2022-08-19T08:54:58;18.10;96.60
46378;DHT22;32083;47.360;9.650;2022-08-19T08:57:32;18.10;96.50
46378;DHT22;32083;47.360;9.650;2022-08-19T09:00:06;18.10;96.40
46378;DHT22;32083;47.360;9.650;2022-08-19T09:02:33;18.20;96.30
46378;DHT22;32083;47.360;9.650;2022-08-19T09:04:59;18.20;96.40
46378;DHT22;32083;47.360;9.650;2022-08-19T09:07:53;18.10;96.30
46378;DHT22;32083;47.360;9.650;2022-08-19T09:10:38;18.20;96.40
46378;DHT22;32083;47.360;9.650;2022-08-19T09:16:26;18.10;96.40
46378;DHT22;32083;47.360;9.650;2022-08-19T09:19:01;18.20;96.20
46378;DHT22;32083;47.360;9.650;2022-08-19T09:21:27;18.20;96.50
46378;DHT22;32083;47.360;9.650;2022-08-19T09:23:54;18.20;96.30
46378;DHT22;32083;47.360;9.650;2022-08-19T09:26:22;18.20;96.20
46378;DHT22;32083;47.360;9.650;2022-08-19T09:28:51;18.20;96.10
46378;DHT22;32083;47.360;9.650;2022-08-19T09:31:26;18.30;96.10
46378;DHT22;32083;47.360;9.650;2022-08-19T09:33:52;18.30;96.30
46378;DHT22;32083;47.360;9.650;2022-08-19T09:36:24;18.30;96.10
46378;DHT22;32083;47.360;9.650;2022-08-19T09:38:51;18.30;96.10
46378;DHT22;32083;47.360;9.650;2022-08-19T09:41:20;18.30;96.10
46378;DHT22;32083;47.360;9.650;2022-08-19T09:43:48;18.30;96.10
46378;DHT22;32083;47.360;9.650;2022-08-19T09:46:18;18.30;96.20
46378;DHT22;32083;47.360;9.650;2022-08-19T09:48:47;18.30;96.00
46378;DHT22;32083;47.360;9.650;2022-08-19T09:51:17;18.30;95.90
46378;DHT22;32083;47.360;9.650;2022-08-19T09:53:45;18.30;95.90
46378;DHT22;32083;47.360;9.650;2022-08-19T09:56:12;18.40;96.00
46378;DHT22;32083;47.360;9.650;2022-08-19T09:58:38;18.30;96.00
46378;DHT22;32083;47.360;9.650;2022-08-19T10:01:06;18.30;96.20
46378;DHT22;32083;47.360;9.650;2022-08-19T10:03:33;18.30;96.10
46378;DHT22;32083;47.360;9.650;2022-08-19T10:06:02;18.40;96.30
46378;DHT22;32083;47.360;9.650;2022-08-19T10:08:33;18.30;96.20
46378;DHT22;32083;47.360;9.650;2022-08-19T10:10:59;18.30;96.10
46378;DHT22;32083;47.360;9.650;2022-08-19T10:13:29;18.30;96.10
46378;DHT22;32083;47.360;9.650;2022-08-19T10:16:01;18.30;96.30
46378;DHT22;32083;47.360;9.650;2022-08-19T10:18:28;18.30;96.20
46378;DHT22;32083;47.360;9.650;2022-08-19T10:21:12;18.30;96.20
46378;DHT22;32083;47.360;9.650;2022-08-19T10:23:43;18.30;96.20
46378;DHT22;32083;47.360;9.650;2022-08-19T10:26:18;18.30;96.00
46378;DHT22;32083;47.360;9.650;2022-08-19T10:28:44;18.30;95.90
46378;DHT22;32083;47.360;9.650;2022-08-19T10:31:27;18.30;96.00
46378;DHT22;32083;47.360;9.650;2022-08-19T10:33:55;18.30;96.20
46378;DHT22;32083;47.360;9.650;2022-08-19T10:36:35;18.20;95.90
46378;DHT22;32083;47.360;9.650;2022-08-19T10:39:05;18.20;96.00
46378;DHT22;32083;47.360;9.650;2022-08-19T10:41:33;18.20;95.90
46378;DHT22;32083;47.360;9.650;2022-08-19T10:44:04;18.20;96.30
46378;DHT22;32083;47.360;9.650;2022-08-19T10:46:32;18.20;96.40
46378;DHT22;32083;47.360;9.650;2022-08-19T10:49:02;18.20;96.20
46378;DHT22;32083;47.360;9.650;2022-08-19T10:51:30;18.20;96.20
46378;DHT22;32083;47.360;9.650;2022-08-19T10:54:15;18.20;96.10
46378;DHT22;32083;47.360;9.650;2022-08-19T10:56:41;18.30;96.30
46378;DHT22;32083;47.360;9.650;2022-08-19T10:59:23;18.30;96.30
46378;DHT22;32083;47.360;9.650;2022-08-19T11:01:50;18.30;96.20
46378;DHT22;32083;47.360;9.650;2022-08-19T11:04:18;18.30;96.10
46378;DHT22;32083;47.360;9.650;2022-08-19T11:06:47;18.30;96.30
46378;DHT22;32083;47.360;9.650;2022-08-19T11:09:18;18.30;96.10
46378;DHT22;32083;47.360;9.650;2022-08-19T11:11:45;18.20;96.10
46378;DHT22;32083;47.360;9.650;2022-08-19T11:14:13;18.20;96.20
46378;DHT22;32083;47.360;9.650;2022-08-19T11:16:41;18.10;96.40
46378;DHT22;32083;47.360;9.650;2022-08-19T11:19:10;18.10;96.30
46378;DHT22;32083;47.360;9.650;2022-08-19T11:21:39;18.10;96.40
46378;DHT22;32083;47.360;9.650;2022-08-19T11:24:12;18.10;96.40
46378;DHT22;32083;47.360;9.650;2022-08-19T11:26:39;18.00;96.50
46378;DHT22;32083;47.360;9.650;2022-08-19T11:29:08;18.00;96.40
46378;DHT22;32083;47.360;9.650;2022-08-19T11:31:38;17.90;96.50
46378;DHT22;32083;47.360;9.650;2022-08-19T11:34:07;17.90;96.60
46378;DHT22;32083;47.360;9.650;2022-08-19T11:36:36;17.90;96.50
46378;DHT22;32083;47.360;9.650;2022-08-19T11:39:05;17.80;96.50
46378;DHT22;32083;47.360;9.650;2022-08-19T11:41:32;17.80;96.60
46378;DHT22;32083;47.360;9.650;2022-08-19T11:43:58;17.80;96.50
46378;DHT22;32083;47.360;9.650;2022-08-19T11:46:25;17.70;96.70
46378;DHT22;32083;47.360;9.650;2022-08-19T11:48:59;17.70;96.60
46378;DHT22;32083;47.360;9.650;2022-08-19T11:51:27;17.70;96.70
46378;DHT22;32083;47.360;9.650;2022-08-19T11:53:54;17.60;96.60
46378;DHT22;32083;47.360;9.650;2022-08-19T11:56:22;17.60;96.70
46378;DHT22;32083;47.360;9.650;2022-08-19T11:58:49;17.60;96.80
46378;DHT22;32083;47.360;9.650;2022-08-19T12:01:17;17.60;96.70
46378;DHT22;32083;47.360;9.650;2022-08-19T12:03:45;17.60;96.80
46378;DHT22;32083;47.360;9.650;2022-08-19T12:06:18;17.50;96.50
46378;DHT22;32083;47.360;9.650;2022-08-19T12:08:44;17.50;96.60
46378;DHT22;32083;47.360;9.650;2022-08-19T12:11:12;17.50;96.40
46378;DHT22;32083;47.360;9.650;2022-08-19T12:13:40;17.50;96.50
46378;DHT22;32083;47.360;9.650;2022-08-19T12:16:15;17.50;96.70
46378;DHT22;32083;47.360;9.650;2022-08-19T12:18:43;17.50;96.30
46378;DHT22;32083;47.360;9.650;2022-08-19T12:21:19;17.50;96.60
46378;DHT22;32083;47.360;9.650;2022-08-19T12:23:47;17.50;96.50
46378;DHT22;32083;47.360;9.650;2022-08-19T12:26:14;17.50;96.70
46378;DHT22;32083;47.360;9.650;2022-08-19T12:28:40;17.50;96.30
46378;DHT22;32083;47.360;9.650;2022-08-19T12:31:07;17.50;96.30
46378;DHT22;32083;47.360;9.650;2022-08-19T12:33:34;17.50;96.20
46378;DHT22;32083;47.360;9.650;2022-08-19T12:36:02;17.40;96.10
46378;DHT22;32083;47.360;9.650;2022-08-19T12:38:29;17.30;96.10
46378;DHT22;32083;47.360;9.650;2022-08-19T12:40:55;17.40;96.40
46378;DHT22;32083;47.360;9.650;2022-08-19T12:43:21;17.40;96.30
46378;DHT22;32083;47.360;9.650;2022-08-19T12:45:48;17.40;96.40
46378;DHT22;32083;47.360;9.650;2022-08-19T12:48:14;17.40;96.40
46378;DHT22;32083;47.360;9.650;2022-08-19T12:50:42;17.40;96.60
46378;DHT22;32083;47.360;9.650;2022-08-19T12:53:10;17.50;96.60
46378;DHT22;32083;47.360;9.650;2022-08-19T12:55:36;17.50;96.50
46378;DHT22;32083;47.360;9.650;2022-08-19T12:58:03;17.50;96.60
46378;DHT22;32083;47.360;9.650;2022-08-19T13:00:29;17.50;96.50
46378;DHT22;32083;47.360;9.650;2022-08-19T13:02:58;17.50;96.70
46378;DHT22;32083;47.360;9.650;2022-08-19T13:05:29;17.50;96.70
46378;DHT22;32083;47.360;9.650;2022-08-19T13:07:57;17.50;96.80
46378;DHT22;32083;47.360;9.650;2022-08-19T13:10:28;17.60;96.70
46378;DHT22;32083;47.360;9.650;2022-08-19T13:12:54;17.60;96.70
46378;DHT22;32083;47.360;9.650;2022-08-19T13:15:22;17.60;96.60
46378;DHT22;32083;47.360;9.650;2022-08-19T13:17:50;17.60;96.60
46378;DHT22;32083;47.360;9.650;2022-08-19T13:20:18;17.60;96.60
46378;DHT22;32083;47.360;9.650;2022-08-19T13:22:46;17.60;96.70
46378;DHT22;32083;47.360;9.650;2022-08-19T13:25:14;17.60;96.80
46378;DHT22;32083;47.360;9.650;2022-08-19T13:27:43;17.60;96.70
46378;DHT22;32083;47.360;9.650;2022-08-19T13:30:11;17.50;96.70
46378;DHT22;32083;47.360;9.650;2022-08-19T13:32:57;17.50;96.90
46378;DHT22;32083;47.360;9.650;2022-08-19T13:35:56;17.40;96.80
46378;DHT22;32083;47.360;9.650;2022-08-19T13:38:23;17.40;96.90
46378;DHT22;32083;47.360;9.650;2022-08-19T13:40:51;17.40;96.90
46378;DHT22;32083;47.360;9.650;2022-08-19T13:43:21;17.40;96.70
46378;DHT22;32083;47.360;9.650;2022-08-19T13:45:52;17.40;96.80
46378;DHT22;32083;47.360;9.650;2022-08-19T13:48:21;17.40;96.70
46378;DHT22;32083;47.360;9.650;2022-08-19T13:50:47;17.50;96.90
46378;DHT22;32083;47.360;9.650;2022-08-19T13:53:17;17.50;96.80
46378;DHT22;32083;47.360;9.650;2022-08-19T13:55:43;17.50;96.80
46378;DHT22;32083;47.360;9.650;2022-08-19T13:58:10;17.50;96.80
46378;DHT22;32083;47.360;9.650;2022-08-19T14:00:44;17.50;96.70
46378;DHT22;32083;47.360;9.650;2022-08-19T14:03:11;17.50;96.70
46378;DHT22;32083;47.360;9.650;2022-08-19T14:05:38;17.50;96.60
46378;DHT22;32083;47.360;9.650;2022-08-19T14:08:06;17.50;96.70
46378;DHT22;32083;47.360;9.650;2022-08-19T14:10:36;17.50;96.60
46378;DHT22;32083;47.360;9.650;2022-08-19T14:13:03;17.50;96.60
46378;DHT22;32083;47.360;9.650;2022-08-19T14:15:30;17.50;96.70
46378;DHT22;32083;47.360;9.650;2022-08-19T14:17:58;17.50;96.60
46378;DHT22;32083;47.360;9.650;2022-08-19T14:20:39;17.60;96.80
46378;DHT22;32083;47.360;9.650;2022-08-19T14:23:07;17.50;97.00
46378;DHT22;32083;47.360;9.650;2022-08-19T14:25:35;17.50;96.90
46378;DHT22;32083;47.360;9.650;2022-08-19T14:28:01;17.50;96.90
46378;DHT22;32083;47.360;9.650;2022-08-19T14:30:34;17.50;97.00
46378;DHT22;32083;47.360;9.650;2022-08-19T14:33:04;17.50;97.00
46378;DHT22;32083;47.360;9.650;2022-08-19T14:35:34;17.40;96.90
46378;DHT22;32083;47.360;9.650;2022-08-19T14:38:14;17.40;97.00
46378;DHT22;32083;47.360;9.650;2022-08-19T14:40:41;17.40;97.10
46378;DHT22;32083;47.360;9.650;2022-08-19T14:43:08;17.50;97.10
46378;DHT22;32083;47.360;9.650;2022-08-19T14:45:37;17.40;97.00
46378;DHT22;32083;47.360;9.650;2022-08-19T14:48:23;17.50;97.10
46378;DHT22;32083;47.360;9.650;2022-08-19T14:51:09;17.50;97.00
46378;DHT22;32083;47.360;9.650;2022-08-19T14:53:56;17.50;96.90
46378;DHT22;32083;47.360;9.650;2022-08-19T14:56:53;17.60;97.20
46378;DHT22;32083;47.360;9.650;2022-08-19T14:59:47;17.50;97.00
46378;DHT22;32083;47.360;9.650;2022-08-19T15:02:20;17.50;96.90
46378;DHT22;32083;47.360;9.650;2022-08-19T15:04:46;17.50;96.90
46378;DHT22;32083;47.360;9.650;2022-08-19T15:07:16;17.50;96.90
46378;DHT22;32083;47.360;9.650;2022-08-19T15:09:45;17.50;96.90
46378;DHT22;32083;47.360;9.650;2022-08-19T15:12:17;17.50;96.90
46378;DHT22;32083;47.360;9.650;2022-08-19T15:14:45;17.50;97.00
46378;DHT22;32083;47.360;9.650;2022-08-19T15:17:27;17.50;96.90
46378;DHT22;32083;47.360;9.650;2022-08-19T15:19:59;17.60;96.90
46378;DHT22;32083;47.360;9.650;2022-08-19T15:22:26;17.60;96.90
46378;DHT22;32083;47.360;9.650;2022-08-19T15:24:53;17.60;96.80
46378;DHT22;32083;47.360;9.650;2022-08-19T15:27:22;17.60;96.80
46378;DHT22;32083;47.360;9.650;2022-08-19T15:29:54;17.50;97.00
46378;DHT22;32083;47.360;9.650;2022-08-19T15:32:24;17.60;96.80
46378;DHT22;32083;47.360;9.650;2022-08-19T15:34:52;17.60;96.80
46378;DHT22;32083;47.360;9.650;2022-08-19T15:37:20;17.60;97.00
46378;DHT22;32083;47.360;9.650;2022-08-19T15:39:52;17.60;97.00
46378;DHT22;32083;47.360;9.650;2022-08-19T15:42:26;17.60;97.10
46378;DHT22;32083;47.360;9.650;2022-08-19T15:44:52;17.60;97.00
46378;DHT22;32083;47.360;9.650;2022-08-19T15:47:21;17.60;97.10
46378;DHT22;32083;47.360;9.650;2022-08-19T15:49:50;17.60;97.00
46378;DHT22;32083;47.360;9.650;2022-08-19T15:52:20;17.60;97.20
46378;DHT22;32083;47.360;9.650;2022-08-19T15:54:47;17.60;97.30
46378;DHT22;32083;47.360;9.650;2022-08-19T15:57:13;17.60;97.10
46378;DHT22;32083;47.360;9.650;2022-08-19T15:59:56;17.70;97.00
46378;DHT22;32083;47.360;9.650;2022-08-19T16:02:53;17.70;97.00
46378;DHT22;32083;47.360;9.650;2022-08-19T16:08:14;17.70;96.90
46378;DHT22;32083;47.360;9.650;2022-08-19T16:10:40;17.70;97.00
46378;DHT22;32083;47.360;9.650;2022-08-19T16:13:06;17.70;96.90
46378;DHT22;32083;47.360;9.650;2022-08-19T16:15:32;17.80;97.00
46378;DHT22;32083;47.360;9.650;2022-08-19T16:17:59;17.80;96.80
46378;DHT22;32083;47.360;9.650;2022-08-19T16:20:29;17.80;96.80
46378;DHT22;32083;47.360;9.650;2022-08-19T16:22:57;17.80;96.70
46378;DHT22;32083;47.360;9.650;2022-08-19T16:25:23;17.80;96.90
46378;DHT22;32083;47.360;9.650;2022-08-19T16:27:52;17.80;96.90
46378;DHT22;32083;47.360;9.650;2022-08-19T16:30:19;17.70;96.80
46378;DHT22;32083;47.360;9.650;2022-08-19T16:32:45;17.70;97.00
46378;DHT22;32083;47.360;9.650;2022-08-19T16:35:11;17.80;96.90
46378;DHT22;32083;47.360;9.650;2022-08-19T16:37:37;17.70;96.90
46378;DHT22;32083;47.360;9.650;2022-08-19T16:40:04;17.70;97.00
46378;DHT22;32083;47.360;9.650;2022-08-19T16:42:33;17.70;96.90
46378;DHT22;32083;47.360;9.650;2022-08-19T16:44:59;17.70;97.00
46378;DHT22;32083;47.360;9.650;2022-08-19T16:47:25;17.80;97.00
46378;DHT22;32083;47.360;9.650;2022-08-19T16:49:51;17.80;97.00
46378;DHT22;32083;47.360;9.650;2022-08-19T16:52:18;17.80;96.90
46378;DHT22;32083;47.360;9.650;2022-08-19T16:54:46;17.80;96.90
46378;DHT22;32083;47.360;9.650;2022-08-19T16:57:12;17.80;97.00
46378;DHT22;32083;47.360;9.650;2022-08-19T16:59:39;17.80;96.80
46378;DHT22;32083;47.360;9.650;2022-08-19T17:02:05;17.90;96.90
46378;DHT22;32083;47.360;9.650;2022-08-19T17:04:31;17.90;97.00
46378;DHT22;32083;47.360;9.650;2022-08-19T17:06:57;17.90;96.80
46378;DHT22;32083;47.360;9.650;2022-08-19T17:09:23;17.90;96.90
46378;DHT22;32083;47.360;9.650;2022-08-19T17:11:49;17.90;96.80
46378;DHT22;32083;47.360;9.650;2022-08-19T17:14:16;17.90;96.80
46378;DHT22;32083;47.360;9.650;2022-08-19T17:16:44;17.90;96.90
46378;DHT22;32083;47.360;9.650;2022-08-19T17:19:10;17.80;97.00
46378;DHT22;32083;47.360;9.650;2022-08-19T17:21:37;17.80;96.90
46378;DHT22;32083;47.360;9.650;2022-08-19T17:24:06;17.80;97.00
46378;DHT22;32083;47.360;9.650;2022-08-19T17:26:34;17.80;97.00
46378;DHT22;32083;47.360;9.650;2022-08-19T17:29:01;17.70;97.10
46378;DHT22;32083;47.360;9.650;2022-08-19T17:31:28;17.70;97.00
46378;DHT22;32083;47.360;9.650;2022-08-19T17:33:54;17.70;97.10
46378;DHT22;32083;47.360;9.650;2022-08-19T17:36:25;17.70;97.00
46378;DHT22;32083;47.360;9.650;2022-08-19T17:38:53;17.70;97.10
46378;DHT22;32083;47.360;9.650;2022-08-19T17:41:20;17.80;97.00
46378;DHT22;32083;47.360;9.650;2022-08-19T17:43:46;17.80;97.00
46378;DHT22;32083;47.360;9.650;2022-08-19T17:46:13;17.80;97.00
46378;DHT22;32083;47.360;9.650;2022-08-19T17:48:41;17.80;97.00
46378;DHT22;32083;47.360;9.650;2022-08-19T17:51:23;17.80;96.90
46378;DHT22;32083;47.360;9.650;2022-08-19T17:53:51;17.80;97.00
46378;DHT22;32083;47.360;9.650;2022-08-19T17:56:18;17.80;96.80
46378;DHT22;32083;47.360;9.650;2022-08-19T17:58:45;17.80;97.00
46378;DHT22;32083;47.360;9.650;2022-08-19T18:01:13;17.80;96.90
46378;DHT22;32083;47.360;9.650;2022-08-19T18:03:41;17.80;96.80
46378;DHT22;32083;47.360;9.650;2022-08-19T18:06:08;17.80;96.90
46378;DHT22;32083;47.360;9.650;2022-08-19T18:08:35;17.80;96.80
46378;DHT22;32083;47.360;9.650;2022-08-19T18:11:06;17.80;96.90
46378;DHT22;32083;47.360;9.650;2022-08-19T18:13:32;17.80;96.80
46378;DHT22;32083;47.360;9.650;2022-08-19T18:15:58;17.80;96.60
46378;DHT22;32083;47.360;9.650;2022-08-19T18:18:24;17.80;96.70
46378;DHT22;32083;47.360;9.650;2022-08-19T18:20:54;17.90;96.80
46378;DHT22;32083;47.360;9.650;2022-08-19T18:23:21;17.80;96.80
46378;DHT22;32083;47.360;9.650;2022-08-19T18:25:47;17.80;96.80
46378;DHT22;32083;47.360;9.650;2022-08-19T18:28:14;17.70;96.90
46378;DHT22;32083;47.360;9.650;2022-08-19T18:30:40;17.70;96.80
46378;DHT22;32083;47.360;9.650;2022-08-19T18:33:08;17.70;96.80
46378;DHT22;32083;47.360;9.650;2022-08-19T18:35:43;17.70;97.00
46378;DHT22;32083;47.360;9.650;2022-08-19T18:38:12;17.70;96.80
46378;DHT22;32083;47.360;9.650;2022-08-19T18:40:56;17.70;96.70
46378;DHT22;32083;47.360;9.650;2022-08-19T18:43:41;17.70;96.80
46378;DHT22;32083;47.360;9.650;2022-08-19T18:46:25;17.70;96.70
46378;DHT22;32083;47.360;9.650;2022-08-19T18:49:13;17.60;96.80
46378;DHT22;32083;47.360;9.650;2022-08-19T18:51:42;17.60;97.20
46378;DHT22;32083;47.360;9.650;2022-08-19T18:54:08;17.60;97.00
46378;DHT22;32083;47.360;9.650;2022-08-19T18:56:35;17.60;97.10
46378;DHT22;32083;47.360;9.650;2022-08-19T18:59:03;17.60;97.10
46378;DHT22;32083;47.360;9.650;2022-08-19T19:01:35;17.60;97.00
46378;DHT22;32083;47.360;9.650;2022-08-19T19:04:08;17.60;97.10
46378;DHT22;32083;47.360;9.650;2022-08-19T19:06:40;17.60;97.20
46378;DHT22;32083;47.360;9.650;2022-08-19T19:09:09;17.60;97.10
46378;DHT22;32083;47.360;9.650;2022-08-19T19:11:39;17.60;97.00
46378;DHT22;32083;47.360;9.650;2022-08-19T19:14:07;17.60;97.10
46378;DHT22;32083;47.360;9.650;2022-08-19T19:16:38;17.60;97.10
46378;DHT22;32083;47.360;9.650;2022-08-19T19:19:05;17.60;97.00
46378;DHT22;32083;47.360;9.650;2022-08-19T19:21:37;17.60;97.00
46378;DHT22;32083;47.360;9.650;2022-08-19T19:24:07;17.60;97.00
46378;DHT22;32083;47.360;9.650;2022-08-19T19:26:33;17.60;96.90
46378;DHT22;32083;47.360;9.650;2022-08-19T19:29:01;17.60;96.90
46378;DHT22;32083;47.360;9.650;2022-08-19T19:31:27;17.60;97.00
46378;DHT22;32083;47.360;9.650;2022-08-19T19:33:54;17.60;96.80
46378;DHT22;32083;47.360;9.650;2022-08-19T19:36:22;17.60;96.90
46378;DHT22;32083;47.360;9.650;2022-08-19T19:38:47;17.60;96.80
46378;DHT22;32083;47.360;9.650;2022-08-19T19:41:17;17.60;96.90
46378;DHT22;32083;47.360;9.650;2022-08-19T19:43:43;17.60;97.20
46378;DHT22;32083;47.360;9.650;2022-08-19T19:46:09;17.60;96.80
46378;DHT22;32083;47.360;9.650;2022-08-19T19:48:35;17.60;97.00
46378;DHT22;32083;47.360;9.650;2022-08-19T19:51:03;17.60;97.20
46378;DHT22;32083;47.360;9.650;2022-08-19T19:53:29;17.50;96.80